Overview Statistics Trail Chart Weather Telemetry Raw packets
 

This is the latest recevied telemetry packets stored in our database for station/object DG6DR-12. If no packets are shown the sender has not sent any telemetry packets the latest 10 day(s).

Telemetry packets is used to share measurements like repeteater parameters, battery voltage, radiation readings (or any other measurements).

<< 1 2 3 4 >>
Time Press* Temp.in* Hum* QNH* Temp.out*
1788626636 1003.2 hPa 24.2 C deg 48.9 % 1024.4 hPa 0 C deg
1788624806 1002.7 hPa 24.2 C deg 48.8 % 1024 hPa 0 C deg
1788622976 1002.5 hPa 24.6 C deg 53.5 % 1023.7 hPa 0 C deg
1788621146 1002.1 hPa 25.1 C deg 55.4 % 1023.3 hPa 0 C deg
1788619316 1002 hPa 25.1 C deg 55.3 % 1023.2 hPa 0 C deg
1788617486 1001.7 hPa 25 C deg 55.1 % 1022.9 hPa 0 C deg
1788615669 1001.5 hPa 24.9 C deg 54.6 % 1022.7 hPa 0 C deg
1788613826 1001.4 hPa 24.7 C deg 54 % 1022.6 hPa 0 C deg
1788611996 1001.4 hPa 24.3 C deg 54 % 1022.6 hPa 0 C deg
1788610166 1001.2 hPa 24.6 C deg 54.4 % 1022.5 hPa 0 C deg
1788608336 1000.9 hPa 24.5 C deg 54.9 % 1022.1 hPa 0 C deg
1788606506 1000.8 hPa 24.4 C deg 55.3 % 1022.1 hPa 0 C deg
1788604675 1000.6 hPa 24 C deg 54.9 % 1021.8 hPa 0 C deg
1788602845 1000.5 hPa 24 C deg 54.5 % 1021.8 hPa 0 C deg
1788601015 1000.3 hPa 23.9 C deg 53.8 % 1021.6 hPa 0 C deg
1788599185 1000.1 hPa 23.6 C deg 54.3 % 1021.4 hPa 0 C deg
1788597355 1000 hPa 23.6 C deg 54.6 % 1021.3 hPa 0 C deg
1788532772 990.9 hPa 24.8 C deg 57.9 % 1011.9 hPa 0 C deg
1788530942 990.8 hPa 24.9 C deg 57.7 % 1011.8 hPa 0 C deg
1788529111 991.1 hPa 24.8 C deg 58.1 % 1012.1 hPa 0 C deg
1788527281 990.7 hPa 24.7 C deg 58.5 % 1011.7 hPa 0 C deg
1788525451 990.5 hPa 24.6 C deg 58.7 % 1011.5 hPa 0 C deg
1788523621 990.8 hPa 24.5 C deg 58.9 % 1011.8 hPa 0 C deg
1788521791 991.2 hPa 24.4 C deg 58.8 % 1012.2 hPa 0 C deg
1788519961 991.3 hPa 24.3 C deg 59.4 % 1012.3 hPa 0 C deg
*Used Equation Coefficients:
Press: 0, 1, 0
Temp.in: 0, 1, 0
Hum: 0, 1, 0
QNH: 0, 1, 0
Temp.out: 0, 1, 0

  • The parameter names for the analog channels will be Value1, Value2, Value3 (up to Value5) if station has not sent a PARAM-packet that specifies the parameter names for each analog channel.
  • Each analog value is a decimal number between 000 and 255 (according to APRS specifications). The receiver use the telemetry equation coefficientsto to restore the original sensor values. If no EQNS-packet with equation coefficients is sent we will show the values as is (this corresponds to the equation coefficients a=0, b=1 and c=0).
    The sent equation coefficients is used in the equation: a * value2 + b * value + c.
  • The units for the analog values will not be shown if station has not sent a UNIT-packet specifying what unit's to use.
  • The parameter names for the digital bits will be Bit1, Bit2, Bit3 (up to Bit8) if station has not sent a PARAM-packet that specifies the parameter names for each digital bit.
  • All bit labels will be named "On" if station has not sent a UNIT-packet that specifies the label of each bit.
  • A bit is considered to be On when the bit is 1 if station has not sent a BITS-packet that specifies another "Bit sense" (a BITS-packet specify the state of the bits that match the BIT labels)